sensor_id;sensor_type;location;lat;lon;timestamp;P1;P2;P0
73246;PMS5003;61460;41.158;-73.238;2022-10-16T00:01:41;7;7;
73246;PMS5003;61460;41.158;-73.238;2022-10-16T00:04:12;11;8;
73246;PMS5003;61460;41.158;-73.238;2022-10-16T00:06:42;13;9;
73246;PMS5003;61460;41.158;-73.238;2022-10-16T00:09:12;9;8;
73246;PMS5003;61460;41.158;-73.238;2022-10-16T00:11:43;6;6;
73246;PMS5003;61460;41.158;-73.238;2022-10-16T00:14:14;5;5;
73246;PMS5003;61460;41.158;-73.238;2022-10-16T00:16:44;7;6;
73246;PMS5003;61460;41.158;-73.238;2022-10-16T00:19:15;6;6;
73246;PMS5003;61460;41.158;-73.238;2022-10-16T00:21:46;6;6;
73246;PMS5003;61460;41.158;-73.238;2022-10-16T00:24:16;6;6;
73246;PMS5003;61460;41.158;-73.238;2022-10-16T00:26:48;7;6;
73246;PMS5003;61460;41.158;-73.238;2022-10-16T00:29:17;5;5;
73246;PMS5003;61460;41.158;-73.238;2022-10-16T00:31:48;5;4;
73246;PMS5003;61460;41.158;-73.238;2022-10-16T00:34:19;3;3;
73246;PMS5003;61460;41.158;-73.238;2022-10-16T00:36:49;5;4;
73246;PMS5003;61460;41.158;-73.238;2022-10-16T00:39:20;5;4;
73246;PMS5003;61460;41.158;-73.238;2022-10-16T00:41:51;6;6;
73246;PMS5003;61460;41.158;-73.238;2022-10-16T00:46:52;7;5;
73246;PMS5003;61460;41.158;-73.238;2022-10-16T00:49:22;5;5;
73246;PMS5003;61460;41.158;-73.238;2022-10-16T00:51:53;5;5;
73246;PMS5003;61460;41.158;-73.238;2022-10-16T00:54:25;4;4;
73246;PMS5003;61460;41.158;-73.238;2022-10-16T00:56:55;4;4;
73246;PMS5003;61460;41.158;-73.238;2022-10-16T00:59:26;6;5;
73246;PMS5003;61460;41.158;-73.238;2022-10-16T01:01:56;4;4;
73246;PMS5003;61460;41.158;-73.238;2022-10-16T01:04:26;4;4;
73246;PMS5003;61460;41.158;-73.238;2022-10-16T01:06:59;5;5;
73246;PMS5003;61460;41.158;-73.238;2022-10-16T01:09:28;4;4;
73246;PMS5003;61460;41.158;-73.238;2022-10-16T01:12:01;4;4;
73246;PMS5003;61460;41.158;-73.238;2022-10-16T01:14:32;5;5;
73246;PMS5003;61460;41.158;-73.238;2022-10-16T01:17:01;3;3;
73246;PMS5003;61460;41.158;-73.238;2022-10-16T01:19:34;3;3;
73246;PMS5003;61460;41.158;-73.238;2022-10-16T01:22:01;6;6;
73246;PMS5003;61460;41.158;-73.238;2022-10-16T01:24:32;4;4;
73246;PMS5003;61460;41.158;-73.238;2022-10-16T01:29:33;3;3;
73246;PMS5003;61460;41.158;-73.238;2022-10-16T01:32:05;3;3;
73246;PMS5003;61460;41.158;-73.238;2022-10-16T01:34:35;4;4;
73246;PMS5003;61460;41.158;-73.238;2022-10-16T01:37:05;4;3;
73246;PMS5003;61460;41.158;-73.238;2022-10-16T01:39:35;4;4;
73246;PMS5003;61460;41.158;-73.238;2022-10-16T01:42:06;3;3;
73246;PMS5003;61460;41.158;-73.238;2022-10-16T01:44:36;1;1;
73246;PMS5003;61460;41.158;-73.238;2022-10-16T01:47:07;3;2;
73246;PMS5003;61460;41.158;-73.238;2022-10-16T01:49:38;5;4;
73246;PMS5003;61460;41.158;-73.238;2022-10-16T01:52:09;3;3;
73246;PMS5003;61460;41.158;-73.238;2022-10-16T01:54:39;4;3;
73246;PMS5003;61460;41.158;-73.238;2022-10-16T01:57:09;4;4;
73246;PMS5003;61460;41.158;-73.238;2022-10-16T01:59:40;3;3;
73246;PMS5003;61460;41.158;-73.238;2022-10-16T02:02:10;6;3;
73246;PMS5003;61460;41.158;-73.238;2022-10-16T02:04:42;3;3;
73246;PMS5003;61460;41.158;-73.238;2022-10-16T02:07:12;4;3;
73246;PMS5003;61460;41.158;-73.238;2022-10-16T02:09:42;3;3;
73246;PMS5003;61460;41.158;-73.238;2022-10-16T02:12:13;5;3;
73246;PMS5003;61460;41.158;-73.238;2022-10-16T02:14:43;5;4;
73246;PMS5003;61460;41.158;-73.238;2022-10-16T02:17:15;2;2;
73246;PMS5003;61460;41.158;-73.238;2022-10-16T02:19:46;4;4;
73246;PMS5003;61460;41.158;-73.238;2022-10-16T02:22:17;3;3;
73246;PMS5003;61460;41.158;-73.238;2022-10-16T02:24:48;2;2;
73246;PMS5003;61460;41.158;-73.238;2022-10-16T02:27:17;3;3;
73246;PMS5003;61460;41.158;-73.238;2022-10-16T02:29:48;5;4;
73246;PMS5003;61460;41.158;-73.238;2022-10-16T02:32:19;4;4;
73246;PMS5003;61460;41.158;-73.238;2022-10-16T02:34:48;3;3;
73246;PMS5003;61460;41.158;-73.238;2022-10-16T02:37:19;4;4;
73246;PMS5003;61460;41.158;-73.238;2022-10-16T02:39:50;3;3;
73246;PMS5003;61460;41.158;-73.238;2022-10-16T02:42:20;4;4;
73246;PMS5003;61460;41.158;-73.238;2022-10-16T02:44:51;1;1;
73246;PMS5003;61460;41.158;-73.238;2022-10-16T02:47:21;5;5;
73246;PMS5003;61460;41.158;-73.238;2022-10-16T02:49:52;4;4;
73246;PMS5003;61460;41.158;-73.238;2022-10-16T02:52:23;4;3;
73246;PMS5003;61460;41.158;-73.238;2022-10-16T02:54:53;3;3;
73246;PMS5003;61460;41.158;-73.238;2022-10-16T02:57:24;4;4;
73246;PMS5003;61460;41.158;-73.238;2022-10-16T02:59:54;4;3;
73246;PMS5003;61460;41.158;-73.238;2022-10-16T03:02:25;4;4;
73246;PMS5003;61460;41.158;-73.238;2022-10-16T03:04:56;4;3;
73246;PMS5003;61460;41.158;-73.238;2022-10-16T03:07:27;4;4;
73246;PMS5003;61460;41.158;-73.238;2022-10-16T03:09:57;3;3;
73246;PMS5003;61460;41.158;-73.238;2022-10-16T03:12:28;4;3;
73246;PMS5003;61460;41.158;-73.238;2022-10-16T03:14:58;3;3;
73246;PMS5003;61460;41.158;-73.238;2022-10-16T03:17:29;5;4;
73246;PMS5003;61460;41.158;-73.238;2022-10-16T03:19:59;4;4;
73246;PMS5003;61460;41.158;-73.238;2022-10-16T03:22:30;4;4;
73246;PMS5003;61460;41.158;-73.238;2022-10-16T03:25:01;8;5;
73246;PMS5003;61460;41.158;-73.238;2022-10-16T03:27:31;6;6;
73246;PMS5003;61460;41.158;-73.238;2022-10-16T03:30:02;8;6;
73246;PMS5003;61460;41.158;-73.238;2022-10-16T03:32:32;5;4;
73246;PMS5003;61460;41.158;-73.238;2022-10-16T03:35:03;5;4;
73246;PMS5003;61460;41.158;-73.238;2022-10-16T03:37:34;4;4;
73246;PMS5003;61460;41.158;-73.238;2022-10-16T03:40:05;5;5;
73246;PMS5003;61460;41.158;-73.238;2022-10-16T03:42:36;4;4;
73246;PMS5003;61460;41.158;-73.238;2022-10-16T03:45:06;4;4;
73246;PMS5003;61460;41.158;-73.238;2022-10-16T03:47:36;6;5;
73246;PMS5003;61460;41.158;-73.238;2022-10-16T03:50:07;3;2;
73246;PMS5003;61460;41.158;-73.238;2022-10-16T03:52:37;5;4;
73246;PMS5003;61460;41.158;-73.238;2022-10-16T03:55:08;2;2;
73246;PMS5003;61460;41.158;-73.238;2022-10-16T03:57:39;5;4;
73246;PMS5003;61460;41.158;-73.238;2022-10-16T04:00:10;5;5;
73246;PMS5003;61460;41.158;-73.238;2022-10-16T04:02:40;6;5;
73246;PMS5003;61460;41.158;-73.238;2022-10-16T04:05:11;4;4;
73246;PMS5003;61460;41.158;-73.238;2022-10-16T04:07:41;5;4;
73246;PMS5003;61460;41.158;-73.238;2022-10-16T04:10:12;3;2;
73246;PMS5003;61460;41.158;-73.238;2022-10-16T04:12:42;4;4;
73246;PMS5003;61460;41.158;-73.238;2022-10-16T04:15:13;5;5;
73246;PMS5003;61460;41.158;-73.238;2022-10-16T04:17:44;4;3;
73246;PMS5003;61460;41.158;-73.238;2022-10-16T04:20:14;4;4;
73246;PMS5003;61460;41.158;-73.238;2022-10-16T04:22:45;3;3;
73246;PMS5003;61460;41.158;-73.238;2022-10-16T04:25:15;6;5;
73246;PMS5003;61460;41.158;-73.238;2022-10-16T04:27:46;6;6;
73246;PMS5003;61460;41.158;-73.238;2022-10-16T04:30:17;5;5;
73246;PMS5003;61460;41.158;-73.238;2022-10-16T04:32:48;4;4;
73246;PMS5003;61460;41.158;-73.238;2022-10-16T04:35:18;5;4;
73246;PMS5003;61460;41.158;-73.238;2022-10-16T04:37:48;5;5;
73246;PMS5003;61460;41.158;-73.238;2022-10-16T04:40:19;4;4;
73246;PMS5003;61460;41.158;-73.238;2022-10-16T04:42:50;4;4;
73246;PMS5003;61460;41.158;-73.238;2022-10-16T04:45:20;5;5;
73246;PMS5003;61460;41.158;-73.238;2022-10-16T04:47:50;5;5;
73246;PMS5003;61460;41.158;-73.238;2022-10-16T04:50:21;5;5;
73246;PMS5003;61460;41.158;-73.238;2022-10-16T04:52:52;6;6;
73246;PMS5003;61460;41.158;-73.238;2022-10-16T04:55:22;3;3;
73246;PMS5003;61460;41.158;-73.238;2022-10-16T04:57:53;5;4;
73246;PMS5003;61460;41.158;-73.238;2022-10-16T05:00:24;5;4;
73246;PMS5003;61460;41.158;-73.238;2022-10-16T05:02:54;7;7;
73246;PMS5003;61460;41.158;-73.238;2022-10-16T05:05:25;6;6;
73246;PMS5003;61460;41.158;-73.238;2022-10-16T05:07:55;7;6;
73246;PMS5003;61460;41.158;-73.238;2022-10-16T05:10:26;7;6;
73246;PMS5003;61460;41.158;-73.238;2022-10-16T05:12:57;6;6;
73246;PMS5003;61460;41.158;-73.238;2022-10-16T05:15:27;6;6;
73246;PMS5003;61460;41.158;-73.238;2022-10-16T05:17:58;7;6;
73246;PMS5003;61460;41.158;-73.238;2022-10-16T05:20:29;5;5;
73246;PMS5003;61460;41.158;-73.238;2022-10-16T05:22:59;5;5;
73246;PMS5003;61460;41.158;-73.238;2022-10-16T05:25:30;6;6;
73246;PMS5003;61460;41.158;-73.238;2022-10-16T05:28:00;5;5;
73246;PMS5003;61460;41.158;-73.238;2022-10-16T05:30:31;5;5;
73246;PMS5003;61460;41.158;-73.238;2022-10-16T05:33:02;4;4;
73246;PMS5003;61460;41.158;-73.238;2022-10-16T05:35:32;6;5;
73246;PMS5003;61460;41.158;-73.238;2022-10-16T05:38:03;3;3;
73246;PMS5003;61460;41.158;-73.238;2022-10-16T05:40:33;4;4;
73246;PMS5003;61460;41.158;-73.238;2022-10-16T05:43:04;6;5;
73246;PMS5003;61460;41.158;-73.238;2022-10-16T05:45:35;5;5;
73246;PMS5003;61460;41.158;-73.238;2022-10-16T05:48:06;4;4;
73246;PMS5003;61460;41.158;-73.238;2022-10-16T05:50:36;4;4;
73246;PMS5003;61460;41.158;-73.238;2022-10-16T05:53:06;4;4;
73246;PMS5003;61460;41.158;-73.238;2022-10-16T05:55:37;4;4;
73246;PMS5003;61460;41.158;-73.238;2022-10-16T05:58:08;3;3;
73246;PMS5003;61460;41.158;-73.238;2022-10-16T06:00:38;4;4;
73246;PMS5003;61460;41.158;-73.238;2022-10-16T06:03:09;4;4;
73246;PMS5003;61460;41.158;-73.238;2022-10-16T06:05:39;4;4;
73246;PMS5003;61460;41.158;-73.238;2022-10-16T06:08:10;5;5;
73246;PMS5003;61460;41.158;-73.238;2022-10-16T06:10:41;5;3;
73246;PMS5003;61460;41.158;-73.238;2022-10-16T06:13:12;5;5;
73246;PMS5003;61460;41.158;-73.238;2022-10-16T06:15:42;4;4;
73246;PMS5003;61460;41.158;-73.238;2022-10-16T06:18:13;5;5;
73246;PMS5003;61460;41.158;-73.238;2022-10-16T06:20:43;4;4;
73246;PMS5003;61460;41.158;-73.238;2022-10-16T06:23:14;4;3;
73246;PMS5003;61460;41.158;-73.238;2022-10-16T06:25:44;5;5;
73246;PMS5003;61460;41.158;-73.238;2022-10-16T06:28:15;6;5;
73246;PMS5003;61460;41.158;-73.238;2022-10-16T06:30:45;3;3;
73246;PMS5003;61460;41.158;-73.238;2022-10-16T06:33:16;2;2;
73246;PMS5003;61460;41.158;-73.238;2022-10-16T06:35:47;5;4;
73246;PMS5003;61460;41.158;-73.238;2022-10-16T06:38:17;3;3;
73246;PMS5003;61460;41.158;-73.238;2022-10-16T06:40:48;5;4;
73246;PMS5003;61460;41.158;-73.238;2022-10-16T06:43:18;7;5;
73246;PMS5003;61460;41.158;-73.238;2022-10-16T06:45:50;4;4;
73246;PMS5003;61460;41.158;-73.238;2022-10-16T06:48:20;4;4;
73246;PMS5003;61460;41.158;-73.238;2022-10-16T06:53:21;6;5;
73246;PMS5003;61460;41.158;-73.238;2022-10-16T06:55:51;5;5;
73246;PMS5003;61460;41.158;-73.238;2022-10-16T06:58:22;4;4;
73246;PMS5003;61460;41.158;-73.238;2022-10-16T07:00:55;4;4;
73246;PMS5003;61460;41.158;-73.238;2022-10-16T07:03:23;5;4;
73246;PMS5003;61460;41.158;-73.238;2022-10-16T07:05:54;3;3;
73246;PMS5003;61460;41.158;-73.238;2022-10-16T07:08:24;4;4;
73246;PMS5003;61460;41.158;-73.238;2022-10-16T07:10:59;4;3;
73246;PMS5003;61460;41.158;-73.238;2022-10-16T07:13:26;5;5;
73246;PMS5003;61460;41.158;-73.238;2022-10-16T07:15:56;4;4;
73246;PMS5003;61460;41.158;-73.238;2022-10-16T07:18:28;4;4;
73246;PMS5003;61460;41.158;-73.238;2022-10-16T07:21:02;3;3;
73246;PMS5003;61460;41.158;-73.238;2022-10-16T07:23:29;2;2;
73246;PMS5003;61460;41.158;-73.238;2022-10-16T07:25:59;5;5;
73246;PMS5003;61460;41.158;-73.238;2022-10-16T07:28:30;4;4;
73246;PMS5003;61460;41.158;-73.238;2022-10-16T07:31:00;3;3;
73246;PMS5003;61460;41.158;-73.238;2022-10-16T07:33:31;4;4;
73246;PMS5003;61460;41.158;-73.238;2022-10-16T07:36:01;6;5;
73246;PMS5003;61460;41.158;-73.238;2022-10-16T07:38:32;5;4;
73246;PMS5003;61460;41.158;-73.238;2022-10-16T07:41:03;3;3;
73246;PMS5003;61460;41.158;-73.238;2022-10-16T07:43:33;4;4;
73246;PMS5003;61460;41.158;-73.238;2022-10-16T07:46:04;3;3;
73246;PMS5003;61460;41.158;-73.238;2022-10-16T07:48:34;3;3;
73246;PMS5003;61460;41.158;-73.238;2022-10-16T07:51:05;3;3;
73246;PMS5003;61460;41.158;-73.238;2022-10-16T07:53:36;3;3;
73246;PMS5003;61460;41.158;-73.238;2022-10-16T07:56:07;3;3;
73246;PMS5003;61460;41.158;-73.238;2022-10-16T07:58:37;1;1;
73246;PMS5003;61460;41.158;-73.238;2022-10-16T08:01:08;3;3;
73246;PMS5003;61460;41.158;-73.238;2022-10-16T08:03:40;4;3;
73246;PMS5003;61460;41.158;-73.238;2022-10-16T08:06:09;3;3;
73246;PMS5003;61460;41.158;-73.238;2022-10-16T08:08:39;3;3;
73246;PMS5003;61460;41.158;-73.238;2022-10-16T08:11:10;3;3;
73246;PMS5003;61460;41.158;-73.238;2022-10-16T08:13:40;6;4;
73246;PMS5003;61460;41.158;-73.238;2022-10-16T08:16:11;4;4;
73246;PMS5003;61460;41.158;-73.238;2022-10-16T08:18:42;2;2;
73246;PMS5003;61460;41.158;-73.238;2022-10-16T08:21:13;3;3;
73246;PMS5003;61460;41.158;-73.238;2022-10-16T08:23:43;3;3;
73246;PMS5003;61460;41.158;-73.238;2022-10-16T08:26:13;3;3;
73246;PMS5003;61460;41.158;-73.238;2022-10-16T08:28:44;2;2;
73246;PMS5003;61460;41.158;-73.238;2022-10-16T08:31:15;4;3;
73246;PMS5003;61460;41.158;-73.238;2022-10-16T08:33:45;3;2;
73246;PMS5003;61460;41.158;-73.238;2022-10-16T08:36:16;4;2;
73246;PMS5003;61460;41.158;-73.238;2022-10-16T08:38:47;4;3;
73246;PMS5003;61460;41.158;-73.238;2022-10-16T08:41:19;5;4;
73246;PMS5003;61460;41.158;-73.238;2022-10-16T08:46:22;4;4;
73246;PMS5003;61460;41.158;-73.238;2022-10-16T08:48:50;4;4;
73246;PMS5003;61460;41.158;-73.238;2022-10-16T08:51:21;2;2;
73246;PMS5003;61460;41.158;-73.238;2022-10-16T08:53:52;3;3;
73246;PMS5003;61460;41.158;-73.238;2022-10-16T08:56:21;3;3;
73246;PMS5003;61460;41.158;-73.238;2022-10-16T08:58:53;2;1;
73246;PMS5003;61460;41.158;-73.238;2022-10-16T09:01:22;3;3;
73246;PMS5003;61460;41.158;-73.238;2022-10-16T09:04:01;4;4;
73246;PMS5003;61460;41.158;-73.238;2022-10-16T09:06:27;4;4;
73246;PMS5003;61460;41.158;-73.238;2022-10-16T09:08:58;2;2;
73246;PMS5003;61460;41.158;-73.238;2022-10-16T09:11:26;6;4;
73246;PMS5003;61460;41.158;-73.238;2022-10-16T09:13:57;3;3;
73246;PMS5003;61460;41.158;-73.238;2022-10-16T09:16:27;4;4;
73246;PMS5003;61460;41.158;-73.238;2022-10-16T09:18:58;3;3;
73246;PMS5003;61460;41.158;-73.238;2022-10-16T09:21:28;3;3;
73246;PMS5003;61460;41.158;-73.238;2022-10-16T09:23:58;4;4;
73246;PMS5003;61460;41.158;-73.238;2022-10-16T09:26:28;4;4;
73246;PMS5003;61460;41.158;-73.238;2022-10-16T09:28:59;3;3;
73246;PMS5003;61460;41.158;-73.238;2022-10-16T09:31:29;2;2;
73246;PMS5003;61460;41.158;-73.238;2022-10-16T09:34:00;4;4;
73246;PMS5003;61460;41.158;-73.238;2022-10-16T09:36:32;1;1;
73246;PMS5003;61460;41.158;-73.238;2022-10-16T09:39:02;2;2;
73246;PMS5003;61460;41.158;-73.238;2022-10-16T09:41:34;5;5;
73246;PMS5003;61460;41.158;-73.238;2022-10-16T09:44:03;1;1;
73246;PMS5003;61460;41.158;-73.238;2022-10-16T09:46:34;2;2;
73246;PMS5003;61460;41.158;-73.238;2022-10-16T09:49:05;3;3;
73246;PMS5003;61460;41.158;-73.238;2022-10-16T09:51:35;3;3;
73246;PMS5003;61460;41.158;-73.238;2022-10-16T09:56:36;3;3;
73246;PMS5003;61460;41.158;-73.238;2022-10-16T09:59:08;3;3;
73246;PMS5003;61460;41.158;-73.238;2022-10-16T10:01:37;2;2;
73246;PMS5003;61460;41.158;-73.238;2022-10-16T10:04:08;3;3;
73246;PMS5003;61460;41.158;-73.238;2022-10-16T10:06:41;2;2;
73246;PMS5003;61460;41.158;-73.238;2022-10-16T10:11:40;4;3;
73246;PMS5003;61460;41.158;-73.238;2022-10-16T10:14:15;3;3;
73246;PMS5003;61460;41.158;-73.238;2022-10-16T10:16:41;3;3;
73246;PMS5003;61460;41.158;-73.238;2022-10-16T10:19:13;3;3;
73246;PMS5003;61460;41.158;-73.238;2022-10-16T10:21:42;3;3;
73246;PMS5003;61460;41.158;-73.238;2022-10-16T10:24:13;2;2;
73246;PMS5003;61460;41.158;-73.238;2022-10-16T10:26:47;3;3;
73246;PMS5003;61460;41.158;-73.238;2022-10-16T10:29:15;4;3;
73246;PMS5003;61460;41.158;-73.238;2022-10-16T10:31:45;3;3;
73246;PMS5003;61460;41.158;-73.238;2022-10-16T10:34:32;4;4;
73246;PMS5003;61460;41.158;-73.238;2022-10-16T10:36:46;6;3;
73246;PMS5003;61460;41.158;-73.238;2022-10-16T10:39:17;2;2;
73246;PMS5003;61460;41.158;-73.238;2022-10-16T10:44:20;3;3;
73246;PMS5003;61460;41.158;-73.238;2022-10-16T10:46:50;3;3;
73246;PMS5003;61460;41.158;-73.238;2022-10-16T10:49:23;4;3;
73246;PMS5003;61460;41.158;-73.238;2022-10-16T10:51:51;3;3;
73246;PMS5003;61460;41.158;-73.238;2022-10-16T10:54:20;4;4;
73246;PMS5003;61460;41.158;-73.238;2022-10-16T10:56:51;5;4;
73246;PMS5003;61460;41.158;-73.238;2022-10-16T10:59:27;4;4;
73246;PMS5003;61460;41.158;-73.238;2022-10-16T11:01:54;2;2;
73246;PMS5003;61460;41.158;-73.238;2022-10-16T11:04:29;3;3;
73246;PMS5003;61460;41.158;-73.238;2022-10-16T11:06:54;3;3;
73246;PMS5003;61460;41.158;-73.238;2022-10-16T11:09:24;4;4;
73246;PMS5003;61460;41.158;-73.238;2022-10-16T11:11:54;3;3;
73246;PMS5003;61460;41.158;-73.238;2022-10-16T11:14:26;3;3;
73246;PMS5003;61460;41.158;-73.238;2022-10-16T11:16:56;2;2;
73246;PMS5003;61460;41.158;-73.238;2022-10-16T11:19:31;4;4;
73246;PMS5003;61460;41.158;-73.238;2022-10-16T11:21:59;3;3;
73246;PMS5003;61460;41.158;-73.238;2022-10-16T11:24:30;4;3;
73246;PMS5003;61460;41.158;-73.238;2022-10-16T11:26:58;2;2;
73246;PMS5003;61460;41.158;-73.238;2022-10-16T11:29:29;4;4;
73246;PMS5003;61460;41.158;-73.238;2022-10-16T11:32:00;3;3;
73246;PMS5003;61460;41.158;-73.238;2022-10-16T11:34:31;5;3;
73246;PMS5003;61460;41.158;-73.238;2022-10-16T11:37:02;3;3;
73246;PMS5003;61460;41.158;-73.238;2022-10-16T11:39:31;2;2;
73246;PMS5003;61460;41.158;-73.238;2022-10-16T11:42:02;2;2;
73246;PMS5003;61460;41.158;-73.238;2022-10-16T11:44:35;4;3;
73246;PMS5003;61460;41.158;-73.238;2022-10-16T11:47:06;3;2;
73246;PMS5003;61460;41.158;-73.238;2022-10-16T11:49:33;3;3;
73246;PMS5003;61460;41.158;-73.238;2022-10-16T11:52:05;1;1;
73246;PMS5003;61460;41.158;-73.238;2022-10-16T11:54:35;1;1;
73246;PMS5003;61460;41.158;-73.238;2022-10-16T11:57:07;3;3;
73246;PMS5003;61460;41.158;-73.238;2022-10-16T11:59:36;3;2;
73246;PMS5003;61460;41.158;-73.238;2022-10-16T12:02:14;1;1;
73246;PMS5003;61460;41.158;-73.238;2022-10-16T12:04:39;4;4;
73246;PMS5003;61460;41.158;-73.238;2022-10-16T12:07:08;4;3;
73246;PMS5003;61460;41.158;-73.238;2022-10-16T12:09:38;4;3;
73246;PMS5003;61460;41.158;-73.238;2022-10-16T12:14:39;3;3;
73246;PMS5003;61460;41.158;-73.238;2022-10-16T12:19:40;3;3;
73246;PMS5003;61460;41.158;-73.238;2022-10-16T12:22:15;2;2;
73246;PMS5003;61460;41.158;-73.238;2022-10-16T12:24:42;2;1;
73246;PMS5003;61460;41.158;-73.238;2022-10-16T12:29:43;2;2;
73246;PMS5003;61460;41.158;-73.238;2022-10-16T12:34:44;4;2;
73246;PMS5003;61460;41.158;-73.238;2022-10-16T12:37:18;3;3;
73246;PMS5003;61460;41.158;-73.238;2022-10-16T12:39:45;3;2;
73246;PMS5003;61460;41.158;-73.238;2022-10-16T12:42:19;3;2;
73246;PMS5003;61460;41.158;-73.238;2022-10-16T12:44:46;2;0;
73246;PMS5003;61460;41.158;-73.238;2022-10-16T12:47:22;3;3;
73246;PMS5003;61460;41.158;-73.238;2022-10-16T12:49:49;2;2;
73246;PMS5003;61460;41.158;-73.238;2022-10-16T12:54:49;2;2;
73246;PMS5003;61460;41.158;-73.238;2022-10-16T12:57:24;2;2;
73246;PMS5003;61460;41.158;-73.238;2022-10-16T12:59:51;2;2;
73246;PMS5003;61460;41.158;-73.238;2022-10-16T13:07:28;1;1;
73246;PMS5003;61460;41.158;-73.238;2022-10-16T13:09:56;2;2;
73246;PMS5003;61460;41.158;-73.238;2022-10-16T13:12:28;1;1;
73246;PMS5003;61460;41.158;-73.238;2022-10-16T13:17:25;1;1;
73246;PMS5003;61460;41.158;-73.238;2022-10-16T13:19:57;0;0;
73246;PMS5003;61460;41.158;-73.238;2022-10-16T13:22:29;3;2;
73246;PMS5003;61460;41.158;-73.238;2022-10-16T13:25:00;1;0;
73246;PMS5003;61460;41.158;-73.238;2022-10-16T13:27:29;0;0;
73246;PMS5003;61460;41.158;-73.238;2022-10-16T13:30:01;1;1;
73246;PMS5003;61460;41.158;-73.238;2022-10-16T13:32:28;3;3;
73246;PMS5003;61460;41.158;-73.238;2022-10-16T13:34:59;1;1;
73246;PMS5003;61460;41.158;-73.238;2022-10-16T13:37:29;1;1;
73246;PMS5003;61460;41.158;-73.238;2022-10-16T13:40:08;1;1;
73246;PMS5003;61460;41.158;-73.238;2022-10-16T13:42:30;3;2;
73246;PMS5003;61460;41.158;-73.238;2022-10-16T13:45:01;2;2;
73246;PMS5003;61460;41.158;-73.238;2022-10-16T13:47:32;1;1;
73246;PMS5003;61460;41.158;-73.238;2022-10-16T13:50:04;2;2;
73246;PMS5003;61460;41.158;-73.238;2022-10-16T13:52:33;1;1;
73246;PMS5003;61460;41.158;-73.238;2022-10-16T13:55:04;3;3;
73246;PMS5003;61460;41.158;-73.238;2022-10-16T13:57:34;2;1;
73246;PMS5003;61460;41.158;-73.238;2022-10-16T14:02:36;3;3;
73246;PMS5003;61460;41.158;-73.238;2022-10-16T14:05:08;3;3;
73246;PMS5003;61460;41.158;-73.238;2022-10-16T14:07:37;3;2;
73246;PMS5003;61460;41.158;-73.238;2022-10-16T14:10:22;2;1;
73246;PMS5003;61460;41.158;-73.238;2022-10-16T14:12:38;2;2;
73246;PMS5003;61460;41.158;-73.238;2022-10-16T14:17:42;2;2;
73246;PMS5003;61460;41.158;-73.238;2022-10-16T14:20:12;3;2;
73246;PMS5003;61460;41.158;-73.238;2022-10-16T14:22:40;1;1;
73246;PMS5003;61460;41.158;-73.238;2022-10-16T14:27:41;2;2;
73246;PMS5003;61460;41.158;-73.238;2022-10-16T14:30:14;3;3;
73246;PMS5003;61460;41.158;-73.238;2022-10-16T14:37:44;3;3;
73246;PMS5003;61460;41.158;-73.238;2022-10-16T14:40:14;1;1;
73246;PMS5003;61460;41.158;-73.238;2022-10-16T14:42:45;1;1;
73246;PMS5003;61460;41.158;-73.238;2022-10-16T14:45:18;3;3;
73246;PMS5003;61460;41.158;-73.238;2022-10-16T14:47:47;3;3;
73246;PMS5003;61460;41.158;-73.238;2022-10-16T14:50:17;2;2;
73246;PMS5003;61460;41.158;-73.238;2022-10-16T14:52:47;3;3;
73246;PMS5003;61460;41.158;-73.238;2022-10-16T14:55:18;3;3;
73246;PMS5003;61460;41.158;-73.238;2022-10-16T14:57:49;2;2;
73246;PMS5003;61460;41.158;-73.238;2022-10-16T15:00:20;3;3;
73246;PMS5003;61460;41.158;-73.238;2022-10-16T15:02:50;2;2;
73246;PMS5003;61460;41.158;-73.238;2022-10-16T15:05:21;3;2;
73246;PMS5003;61460;41.158;-73.238;2022-10-16T15:07:52;3;2;
73246;PMS5003;61460;41.158;-73.238;2022-10-16T15:10:22;2;2;
73246;PMS5003;61460;41.158;-73.238;2022-10-16T15:12:52;2;2;
73246;PMS5003;61460;41.158;-73.238;2022-10-16T15:17:54;1;1;
73246;PMS5003;61460;41.158;-73.238;2022-10-16T15:20:25;4;3;
73246;PMS5003;61460;41.158;-73.238;2022-10-16T15:22:55;0;0;
73246;PMS5003;61460;41.158;-73.238;2022-10-16T15:25:27;3;3;
73246;PMS5003;61460;41.158;-73.238;2022-10-16T15:27:56;3;3;
73246;PMS5003;61460;41.158;-73.238;2022-10-16T15:30:27;2;2;
73246;PMS5003;61460;41.158;-73.238;2022-10-16T15:32:57;2;2;
73246;PMS5003;61460;41.158;-73.238;2022-10-16T15:35:28;2;2;
73246;PMS5003;61460;41.158;-73.238;2022-10-16T15:37:58;2;2;
73246;PMS5003;61460;41.158;-73.238;2022-10-16T15:40:29;5;4;
73246;PMS5003;61460;41.158;-73.238;2022-10-16T15:42:59;3;3;
73246;PMS5003;61460;41.158;-73.238;2022-10-16T15:45:30;3;3;
73246;PMS5003;61460;41.158;-73.238;2022-10-16T15:48:01;3;2;
73246;PMS5003;61460;41.158;-73.238;2022-10-16T15:50:31;3;3;
73246;PMS5003;61460;41.158;-73.238;2022-10-16T15:53:02;4;4;
73246;PMS5003;61460;41.158;-73.238;2022-10-16T15:55:33;4;4;
73246;PMS5003;61460;41.158;-73.238;2022-10-16T15:58:03;5;4;
73246;PMS5003;61460;41.158;-73.238;2022-10-16T16:00:34;3;3;
73246;PMS5003;61460;41.158;-73.238;2022-10-16T16:03:04;4;4;
73246;PMS5003;61460;41.158;-73.238;2022-10-16T16:05:37;4;4;
73246;PMS5003;61460;41.158;-73.238;2022-10-16T16:08:06;3;3;
73246;PMS5003;61460;41.158;-73.238;2022-10-16T16:10:36;4;4;
73246;PMS5003;61460;41.158;-73.238;2022-10-16T16:13:07;5;4;
73246;PMS5003;61460;41.158;-73.238;2022-10-16T16:15:38;4;4;
73246;PMS5003;61460;41.158;-73.238;2022-10-16T16:18:08;4;4;
73246;PMS5003;61460;41.158;-73.238;2022-10-16T16:20:39;5;4;
73246;PMS5003;61460;41.158;-73.238;2022-10-16T16:23:09;5;4;
73246;PMS5003;61460;41.158;-73.238;2022-10-16T16:25:40;3;3;
73246;PMS5003;61460;41.158;-73.238;2022-10-16T16:28:10;5;5;
73246;PMS5003;61460;41.158;-73.238;2022-10-16T16:30:41;4;3;
73246;PMS5003;61460;41.158;-73.238;2022-10-16T16:33:12;3;3;
73246;PMS5003;61460;41.158;-73.238;2022-10-16T16:35:42;4;4;
73246;PMS5003;61460;41.158;-73.238;2022-10-16T16:38:13;4;4;
73246;PMS5003;61460;41.158;-73.238;2022-10-16T16:40:43;3;3;
73246;PMS5003;61460;41.158;-73.238;2022-10-16T16:43:14;5;4;
73246;PMS5003;61460;41.158;-73.238;2022-10-16T16:45:44;10;7;
73246;PMS5003;61460;41.158;-73.238;2022-10-16T16:48:15;6;5;
73246;PMS5003;61460;41.158;-73.238;2022-10-16T16:50:46;4;4;
73246;PMS5003;61460;41.158;-73.238;2022-10-16T16:53:16;5;4;
73246;PMS5003;61460;41.158;-73.238;2022-10-16T16:55:47;6;6;
73246;PMS5003;61460;41.158;-73.238;2022-10-16T16:58:17;5;5;
73246;PMS5003;61460;41.158;-73.238;2022-10-16T17:00:48;6;6;
73246;PMS5003;61460;41.158;-73.238;2022-10-16T17:03:19;6;6;
73246;PMS5003;61460;41.158;-73.238;2022-10-16T17:08:20;6;6;
73246;PMS5003;61460;41.158;-73.238;2022-10-16T17:10:50;6;6;
73246;PMS5003;61460;41.158;-73.238;2022-10-16T17:13:21;6;5;
73246;PMS5003;61460;41.158;-73.238;2022-10-16T17:15:52;8;7;
73246;PMS5003;61460;41.158;-73.238;2022-10-16T17:18:23;7;7;
73246;PMS5003;61460;41.158;-73.238;2022-10-16T17:20:53;6;5;
73246;PMS5003;61460;41.158;-73.238;2022-10-16T17:23:24;6;5;
73246;PMS5003;61460;41.158;-73.238;2022-10-16T17:25:54;6;6;
73246;PMS5003;61460;41.158;-73.238;2022-10-16T17:28:25;6;6;
73246;PMS5003;61460;41.158;-73.238;2022-10-16T17:30:55;5;5;
73246;PMS5003;61460;41.158;-73.238;2022-10-16T17:33:26;8;6;